sensor_id;sensor_type;location;lat;lon;timestamp;P1;durP1;ratioP1;P2;durP2;ratioP2
76131;SDS011;64877;50.994;13.650;2024-03-07T00:01:17;30.25;;;16.65;;
76131;SDS011;64877;50.994;13.650;2024-03-07T00:03:42;30.23;;;16.20;;
76131;SDS011;64877;50.994;13.650;2024-03-07T00:06:09;34.70;;;17.75;;
76131;SDS011;64877;50.994;13.650;2024-03-07T00:08:35;29.50;;;15.55;;
76131;SDS011;64877;50.994;13.650;2024-03-07T00:11:01;31.13;;;16.38;;
76131;SDS011;64877;50.994;13.650;2024-03-07T00:13:27;35.15;;;17.13;;
76131;SDS011;64877;50.994;13.650;2024-03-07T00:15:53;41.13;;;17.55;;
76131;SDS011;64877;50.994;13.650;2024-03-07T00:18:18;39.03;;;18.85;;
76131;SDS011;64877;50.994;13.650;2024-03-07T00:20:44;29.30;;;15.88;;
76131;SDS011;64877;50.994;13.650;2024-03-07T00:23:09;39.22;;;18.33;;
76131;SDS011;64877;50.994;13.650;2024-03-07T00:25:35;33.90;;;18.80;;
76131;SDS011;64877;50.994;13.650;2024-03-07T00:28:01;36.00;;;19.00;;
76131;SDS011;64877;50.994;13.650;2024-03-07T00:30:29;32.53;;;16.60;;
76131;SDS011;64877;50.994;13.650;2024-03-07T00:32:55;32.92;;;17.55;;
76131;SDS011;64877;50.994;13.650;2024-03-07T00:35:21;31.70;;;18.27;;
76131;SDS011;64877;50.994;13.650;2024-03-07T00:37:47;34.45;;;17.67;;
76131;SDS011;64877;50.994;13.650;2024-03-07T00:40:12;32.67;;;17.55;;
76131;SDS011;64877;50.994;13.650;2024-03-07T00:42:38;36.30;;;17.45;;
76131;SDS011;64877;50.994;13.650;2024-03-07T00:45:04;35.58;;;17.65;;
76131;SDS011;64877;50.994;13.650;2024-03-07T00:47:30;35.58;;;17.42;;
76131;SDS011;64877;50.994;13.650;2024-03-07T00:49:57;36.83;;;18.38;;
76131;SDS011;64877;50.994;13.650;2024-03-07T00:52:22;38.78;;;19.25;;
76131;SDS011;64877;50.994;13.650;2024-03-07T00:54:48;37.63;;;19.83;;
76131;SDS011;64877;50.994;13.650;2024-03-07T00:57:14;34.45;;;17.27;;
76131;SDS011;64877;50.994;13.650;2024-03-07T00:59:40;37.28;;;18.77;;
76131;SDS011;64877;50.994;13.650;2024-03-07T01:02:05;32.63;;;17.88;;
76131;SDS011;64877;50.994;13.650;2024-03-07T01:04:32;38.30;;;19.17;;
76131;SDS011;64877;50.994;13.650;2024-03-07T01:06:58;35.22;;;18.23;;
76131;SDS011;64877;50.994;13.650;2024-03-07T01:09:27;36.97;;;18.73;;
76131;SDS011;64877;50.994;13.650;2024-03-07T01:11:56;37.50;;;19.60;;
76131;SDS011;64877;50.994;13.650;2024-03-07T01:14:21;31.83;;;17.75;;
76131;SDS011;64877;50.994;13.650;2024-03-07T01:16:47;40.28;;;20.27;;
76131;SDS011;64877;50.994;13.650;2024-03-07T01:19:13;35.47;;;18.50;;
76131;SDS011;64877;50.994;13.650;2024-03-07T01:21:40;37.25;;;20.08;;
76131;SDS011;64877;50.994;13.650;2024-03-07T01:24:05;36.10;;;18.63;;
76131;SDS011;64877;50.994;13.650;2024-03-07T01:26:31;37.90;;;19.60;;
76131;SDS011;64877;50.994;13.650;2024-03-07T01:28:58;39.65;;;19.00;;
76131;SDS011;64877;50.994;13.650;2024-03-07T01:31:24;35.88;;;19.02;;
76131;SDS011;64877;50.994;13.650;2024-03-07T01:33:50;41.08;;;20.48;;
76131;SDS011;64877;50.994;13.650;2024-03-07T01:36:16;41.70;;;20.25;;
76131;SDS011;64877;50.994;13.650;2024-03-07T01:38:43;42.08;;;21.83;;
76131;SDS011;64877;50.994;13.650;2024-03-07T01:41:08;41.58;;;20.15;;
76131;SDS011;64877;50.994;13.650;2024-03-07T01:43:34;39.72;;;20.30;;
76131;SDS011;64877;50.994;13.650;2024-03-07T01:45:59;45.50;;;21.40;;
76131;SDS011;64877;50.994;13.650;2024-03-07T01:48:25;39.78;;;20.05;;
76131;SDS011;64877;50.994;13.650;2024-03-07T01:50:54;37.53;;;20.13;;
76131;SDS011;64877;50.994;13.650;2024-03-07T01:53:20;39.10;;;20.25;;
76131;SDS011;64877;50.994;13.650;2024-03-07T01:55:46;38.65;;;19.58;;
76131;SDS011;64877;50.994;13.650;2024-03-07T01:58:12;39.88;;;20.50;;
76131;SDS011;64877;50.994;13.650;2024-03-07T02:00:41;34.35;;;18.63;;
76131;SDS011;64877;50.994;13.650;2024-03-07T02:03:09;43.08;;;21.77;;
76131;SDS011;64877;50.994;13.650;2024-03-07T02:05:34;38.47;;;19.40;;
76131;SDS011;64877;50.994;13.650;2024-03-07T02:08:00;38.15;;;20.67;;
76131;SDS011;64877;50.994;13.650;2024-03-07T02:10:26;39.83;;;20.30;;
76131;SDS011;64877;50.994;13.650;2024-03-07T02:12:52;39.38;;;19.30;;
76131;SDS011;64877;50.994;13.650;2024-03-07T02:15:18;39.38;;;20.00;;
76131;SDS011;64877;50.994;13.650;2024-03-07T02:17:43;43.58;;;21.35;;
76131;SDS011;64877;50.994;13.650;2024-03-07T02:20:09;43.33;;;21.25;;
76131;SDS011;64877;50.994;13.650;2024-03-07T02:22:38;42.40;;;21.20;;
76131;SDS011;64877;50.994;13.650;2024-03-07T02:25:04;37.65;;;20.33;;
76131;SDS011;64877;50.994;13.650;2024-03-07T02:27:35;39.80;;;21.88;;
76131;SDS011;64877;50.994;13.650;2024-03-07T02:30:04;38.20;;;19.45;;
76131;SDS011;64877;50.994;13.650;2024-03-07T02:32:30;37.83;;;19.52;;
76131;SDS011;64877;50.994;13.650;2024-03-07T02:34:56;33.88;;;18.55;;
76131;SDS011;64877;50.994;13.650;2024-03-07T02:37:21;38.90;;;20.00;;
76131;SDS011;64877;50.994;13.650;2024-03-07T02:39:47;36.10;;;19.02;;
76131;SDS011;64877;50.994;13.650;2024-03-07T02:42:12;36.67;;;19.42;;
76131;SDS011;64877;50.994;13.650;2024-03-07T02:44:38;36.90;;;18.52;;
76131;SDS011;64877;50.994;13.650;2024-03-07T02:47:04;36.45;;;18.60;;
76131;SDS011;64877;50.994;13.650;2024-03-07T02:49:30;37.55;;;18.55;;
76131;SDS011;64877;50.994;13.650;2024-03-07T02:51:55;38.90;;;20.02;;
76131;SDS011;64877;50.994;13.650;2024-03-07T02:54:21;37.38;;;19.33;;
76131;SDS011;64877;50.994;13.650;2024-03-07T02:56:47;39.70;;;20.90;;
76131;SDS011;64877;50.994;13.650;2024-03-07T02:59:12;34.17;;;18.75;;
76131;SDS011;64877;50.994;13.650;2024-03-07T03:01:38;35.88;;;18.65;;
76131;SDS011;64877;50.994;13.650;2024-03-07T03:04:04;39.30;;;19.65;;
76131;SDS011;64877;50.994;13.650;2024-03-07T03:06:29;40.22;;;20.52;;
76131;SDS011;64877;50.994;13.650;2024-03-07T03:08:54;43.47;;;20.77;;
76131;SDS011;64877;50.994;13.650;2024-03-07T03:11:20;39.20;;;19.15;;
76131;SDS011;64877;50.994;13.650;2024-03-07T03:13:46;44.22;;;21.42;;
76131;SDS011;64877;50.994;13.650;2024-03-07T03:16:13;35.97;;;19.88;;
76131;SDS011;64877;50.994;13.650;2024-03-07T03:18:38;39.50;;;20.55;;
76131;SDS011;64877;50.994;13.650;2024-03-07T03:21:04;37.75;;;18.70;;
76131;SDS011;64877;50.994;13.650;2024-03-07T03:23:29;36.58;;;19.10;;
76131;SDS011;64877;50.994;13.650;2024-03-07T03:25:55;40.83;;;20.95;;
76131;SDS011;64877;50.994;13.650;2024-03-07T03:28:21;35.70;;;19.40;;
76131;SDS011;64877;50.994;13.650;2024-03-07T03:30:47;38.17;;;19.63;;
76131;SDS011;64877;50.994;13.650;2024-03-07T03:33:13;42.85;;;20.20;;
76131;SDS011;64877;50.994;13.650;2024-03-07T03:35:39;42.25;;;20.85;;
76131;SDS011;64877;50.994;13.650;2024-03-07T03:38:08;39.83;;;21.13;;
76131;SDS011;64877;50.994;13.650;2024-03-07T03:40:34;42.35;;;21.10;;
76131;SDS011;64877;50.994;13.650;2024-03-07T03:42:59;40.92;;;20.63;;
76131;SDS011;64877;50.994;13.650;2024-03-07T03:45:25;46.67;;;21.52;;
76131;SDS011;64877;50.994;13.650;2024-03-07T03:47:51;48.22;;;22.33;;
76131;SDS011;64877;50.994;13.650;2024-03-07T03:50:17;41.38;;;20.60;;
76131;SDS011;64877;50.994;13.650;2024-03-07T03:52:43;41.58;;;20.98;;
76131;SDS011;64877;50.994;13.650;2024-03-07T03:55:09;42.92;;;21.95;;
76131;SDS011;64877;50.994;13.650;2024-03-07T03:57:37;43.28;;;21.30;;
76131;SDS011;64877;50.994;13.650;2024-03-07T04:00:04;41.30;;;21.00;;
76131;SDS011;64877;50.994;13.650;2024-03-07T04:02:38;43.47;;;21.40;;
76131;SDS011;64877;50.994;13.650;2024-03-07T04:05:04;42.97;;;22.58;;
76131;SDS011;64877;50.994;13.650;2024-03-07T04:07:29;44.22;;;21.90;;
76131;SDS011;64877;50.994;13.650;2024-03-07T04:09:56;44.45;;;21.40;;
76131;SDS011;64877;50.994;13.650;2024-03-07T04:12:23;45.67;;;23.70;;
76131;SDS011;64877;50.994;13.650;2024-03-07T04:14:48;44.75;;;22.60;;
76131;SDS011;64877;50.994;13.650;2024-03-07T04:17:14;42.22;;;21.23;;
76131;SDS011;64877;50.994;13.650;2024-03-07T04:19:40;49.13;;;23.90;;
76131;SDS011;64877;50.994;13.650;2024-03-07T04:22:07;44.58;;;22.52;;
76131;SDS011;64877;50.994;13.650;2024-03-07T04:24:33;48.33;;;22.92;;
76131;SDS011;64877;50.994;13.650;2024-03-07T04:27:00;44.92;;;22.80;;
76131;SDS011;64877;50.994;13.650;2024-03-07T04:29:29;44.72;;;22.20;;
76131;SDS011;64877;50.994;13.650;2024-03-07T04:31:55;47.03;;;23.77;;
76131;SDS011;64877;50.994;13.650;2024-03-07T04:34:21;44.25;;;23.65;;
76131;SDS011;64877;50.994;13.650;2024-03-07T04:36:46;46.17;;;23.23;;
76131;SDS011;64877;50.994;13.650;2024-03-07T04:39:12;50.85;;;23.58;;
76131;SDS011;64877;50.994;13.650;2024-03-07T04:41:50;44.75;;;21.52;;
76131;SDS011;64877;50.994;13.650;2024-03-07T04:44:17;53.03;;;24.50;;
76131;SDS011;64877;50.994;13.650;2024-03-07T04:46:43;49.60;;;24.23;;
76131;SDS011;64877;50.994;13.650;2024-03-07T04:49:09;46.15;;;23.23;;
76131;SDS011;64877;50.994;13.650;2024-03-07T04:51:35;46.55;;;23.60;;
76131;SDS011;64877;50.994;13.650;2024-03-07T04:54:00;48.70;;;24.90;;
76131;SDS011;64877;50.994;13.650;2024-03-07T04:56:26;47.60;;;23.38;;
76131;SDS011;64877;50.994;13.650;2024-03-07T04:58:51;46.47;;;23.92;;
76131;SDS011;64877;50.994;13.650;2024-03-07T05:01:17;47.47;;;24.35;;
76131;SDS011;64877;50.994;13.650;2024-03-07T05:03:43;51.55;;;25.20;;
76131;SDS011;64877;50.994;13.650;2024-03-07T05:06:08;53.55;;;24.60;;
76131;SDS011;64877;50.994;13.650;2024-03-07T05:08:34;46.85;;;24.10;;
76131;SDS011;64877;50.994;13.650;2024-03-07T05:10:59;50.72;;;24.85;;
76131;SDS011;64877;50.994;13.650;2024-03-07T05:13:24;47.70;;;24.17;;
76131;SDS011;64877;50.994;13.650;2024-03-07T05:15:50;48.00;;;24.98;;
76131;SDS011;64877;50.994;13.650;2024-03-07T05:18:16;45.60;;;24.30;;
76131;SDS011;64877;50.994;13.650;2024-03-07T05:20:42;46.55;;;24.58;;
76131;SDS011;64877;50.994;13.650;2024-03-07T05:23:07;47.88;;;24.70;;
76131;SDS011;64877;50.994;13.650;2024-03-07T05:25:35;49.15;;;23.67;;
76131;SDS011;64877;50.994;13.650;2024-03-07T05:28:01;45.75;;;22.50;;
76131;SDS011;64877;50.994;13.650;2024-03-07T05:30:27;50.60;;;23.02;;
76131;SDS011;64877;50.994;13.650;2024-03-07T05:32:53;44.45;;;22.35;;
76131;SDS011;64877;50.994;13.650;2024-03-07T05:35:19;46.22;;;22.50;;
76131;SDS011;64877;50.994;13.650;2024-03-07T05:37:45;49.15;;;23.42;;
76131;SDS011;64877;50.994;13.650;2024-03-07T05:40:12;41.03;;;22.17;;
76131;SDS011;64877;50.994;13.650;2024-03-07T05:42:38;40.50;;;22.70;;
76131;SDS011;64877;50.994;13.650;2024-03-07T05:45:04;49.35;;;25.25;;
76131;SDS011;64877;50.994;13.650;2024-03-07T05:47:32;41.42;;;22.02;;
76131;SDS011;64877;50.994;13.650;2024-03-07T05:49:58;44.10;;;22.55;;
76131;SDS011;64877;50.994;13.650;2024-03-07T05:52:24;45.05;;;22.90;;
76131;SDS011;64877;50.994;13.650;2024-03-07T05:54:49;37.72;;;20.80;;
76131;SDS011;64877;50.994;13.650;2024-03-07T05:57:15;37.90;;;21.17;;
76131;SDS011;64877;50.994;13.650;2024-03-07T05:59:40;37.50;;;20.05;;
76131;SDS011;64877;50.994;13.650;2024-03-07T06:02:06;39.78;;;21.33;;
76131;SDS011;64877;50.994;13.650;2024-03-07T06:04:31;35.67;;;20.83;;
76131;SDS011;64877;50.994;13.650;2024-03-07T06:06:57;36.45;;;19.73;;
76131;SDS011;64877;50.994;13.650;2024-03-07T06:09:23;37.17;;;20.35;;
76131;SDS011;64877;50.994;13.650;2024-03-07T06:11:49;38.10;;;20.65;;
76131;SDS011;64877;50.994;13.650;2024-03-07T06:14:14;35.58;;;20.13;;
76131;SDS011;64877;50.994;13.650;2024-03-07T06:16:41;39.35;;;20.15;;
76131;SDS011;64877;50.994;13.650;2024-03-07T06:19:07;40.08;;;20.50;;
76131;SDS011;64877;50.994;13.650;2024-03-07T06:21:34;36.65;;;19.90;;
76131;SDS011;64877;50.994;13.650;2024-03-07T06:24:01;38.15;;;19.30;;
76131;SDS011;64877;50.994;13.650;2024-03-07T06:26:32;38.85;;;20.60;;
76131;SDS011;64877;50.994;13.650;2024-03-07T06:29:24;36.10;;;21.05;;
76131;SDS011;64877;50.994;13.650;2024-03-07T06:31:50;35.20;;;18.88;;
76131;SDS011;64877;50.994;13.650;2024-03-07T06:34:18;32.42;;;17.80;;
76131;SDS011;64877;50.994;13.650;2024-03-07T06:36:44;31.95;;;18.10;;
76131;SDS011;64877;50.994;13.650;2024-03-07T06:39:09;31.60;;;17.05;;
76131;SDS011;64877;50.994;13.650;2024-03-07T06:41:35;33.95;;;17.98;;
76131;SDS011;64877;50.994;13.650;2024-03-07T06:44:01;31.90;;;16.58;;
76131;SDS011;64877;50.994;13.650;2024-03-07T06:46:28;31.33;;;16.88;;
76131;SDS011;64877;50.994;13.650;2024-03-07T06:48:54;25.52;;;15.88;;
76131;SDS011;64877;50.994;13.650;2024-03-07T06:51:19;36.05;;;17.75;;
76131;SDS011;64877;50.994;13.650;2024-03-07T06:53:45;30.05;;;16.05;;
76131;SDS011;64877;50.994;13.650;2024-03-07T06:56:12;33.75;;;17.20;;
76131;SDS011;64877;50.994;13.650;2024-03-07T06:58:38;31.60;;;17.35;;
76131;SDS011;64877;50.994;13.650;2024-03-07T07:01:03;30.27;;;17.42;;
76131;SDS011;64877;50.994;13.650;2024-03-07T07:03:32;30.15;;;16.65;;
76131;SDS011;64877;50.994;13.650;2024-03-07T07:05:58;29.70;;;16.55;;
76131;SDS011;64877;50.994;13.650;2024-03-07T07:08:24;29.58;;;16.70;;
76131;SDS011;64877;50.994;13.650;2024-03-07T07:10:49;31.38;;;16.10;;
76131;SDS011;64877;50.994;13.650;2024-03-07T07:13:14;29.30;;;16.02;;
76131;SDS011;64877;50.994;13.650;2024-03-07T07:15:40;30.95;;;16.10;;
76131;SDS011;64877;50.994;13.650;2024-03-07T07:18:06;28.65;;;16.20;;
76131;SDS011;64877;50.994;13.650;2024-03-07T07:20:33;32.08;;;16.70;;
76131;SDS011;64877;50.994;13.650;2024-03-07T07:22:59;28.23;;;16.52;;
76131;SDS011;64877;50.994;13.650;2024-03-07T07:25:27;29.33;;;17.38;;
76131;SDS011;64877;50.994;13.650;2024-03-07T07:27:52;27.17;;;17.20;;
76131;SDS011;64877;50.994;13.650;2024-03-07T07:30:19;26.77;;;16.95;;
76131;SDS011;64877;50.994;13.650;2024-03-07T07:32:48;25.60;;;15.38;;
76131;SDS011;64877;50.994;13.650;2024-03-07T07:35:15;28.27;;;16.92;;
76131;SDS011;64877;50.994;13.650;2024-03-07T07:37:42;26.73;;;16.27;;
76131;SDS011;64877;50.994;13.650;2024-03-07T07:40:10;23.70;;;15.70;;
76131;SDS011;64877;50.994;13.650;2024-03-07T07:42:43;22.42;;;14.63;;
76131;SDS011;64877;50.994;13.650;2024-03-07T07:45:13;25.33;;;15.23;;
76131;SDS011;64877;50.994;13.650;2024-03-07T07:47:40;24.17;;;14.52;;
76131;SDS011;64877;50.994;13.650;2024-03-07T07:50:09;23.63;;;14.82;;
76131;SDS011;64877;50.994;13.650;2024-03-07T07:52:45;21.35;;;13.65;;
76131;SDS011;64877;50.994;13.650;2024-03-07T07:55:19;24.77;;;13.63;;
76131;SDS011;64877;50.994;13.650;2024-03-07T07:57:46;26.40;;;14.63;;
76131;SDS011;64877;50.994;13.650;2024-03-07T08:00:13;20.38;;;12.82;;
76131;SDS011;64877;50.994;13.650;2024-03-07T08:02:52;25.00;;;12.88;;
76131;SDS011;64877;50.994;13.650;2024-03-07T08:05:30;23.35;;;12.15;;
76131;SDS011;64877;50.994;13.650;2024-03-07T08:07:58;25.27;;;13.02;;
76131;SDS011;64877;50.994;13.650;2024-03-07T08:10:26;19.58;;;12.07;;
76131;SDS011;64877;50.994;13.650;2024-03-07T08:12:56;21.20;;;11.27;;
76131;SDS011;64877;50.994;13.650;2024-03-07T08:15:23;24.05;;;11.82;;
76131;SDS011;64877;50.994;13.650;2024-03-07T08:17:50;25.80;;;11.88;;
76131;SDS011;64877;50.994;13.650;2024-03-07T08:20:17;21.55;;;11.45;;
76131;SDS011;64877;50.994;13.650;2024-03-07T08:22:46;22.85;;;11.93;;
76131;SDS011;64877;50.994;13.650;2024-03-07T08:25:12;19.83;;;11.52;;
76131;SDS011;64877;50.994;13.650;2024-03-07T08:27:40;20.60;;;11.00;;
76131;SDS011;64877;50.994;13.650;2024-03-07T08:30:10;19.15;;;10.77;;
76131;SDS011;64877;50.994;13.650;2024-03-07T08:32:41;18.75;;;10.38;;
76131;SDS011;64877;50.994;13.650;2024-03-07T08:35:19;20.38;;;10.40;;
76131;SDS011;64877;50.994;13.650;2024-03-07T08:37:46;21.45;;;11.40;;
76131;SDS011;64877;50.994;13.650;2024-03-07T08:40:19;19.58;;;10.40;;
76131;SDS011;64877;50.994;13.650;2024-03-07T08:42:50;18.73;;;11.30;;
76131;SDS011;64877;50.994;13.650;2024-03-07T08:45:17;18.98;;;10.48;;
76131;SDS011;64877;50.994;13.650;2024-03-07T08:47:47;20.45;;;9.63;;
76131;SDS011;64877;50.994;13.650;2024-03-07T08:50:16;20.55;;;10.43;;
76131;SDS011;64877;50.994;13.650;2024-03-07T08:52:47;22.60;;;11.07;;
76131;SDS011;64877;50.994;13.650;2024-03-07T08:55:19;19.20;;;9.73;;
76131;SDS011;64877;50.994;13.650;2024-03-07T08:57:46;18.90;;;11.05;;
76131;SDS011;64877;50.994;13.650;2024-03-07T09:00:13;18.85;;;10.25;;
76131;SDS011;64877;50.994;13.650;2024-03-07T09:02:53;17.52;;;10.25;;
76131;SDS011;64877;50.994;13.650;2024-03-07T09:05:29;16.65;;;9.15;;
76131;SDS011;64877;50.994;13.650;2024-03-07T09:07:58;17.83;;;9.45;;
76131;SDS011;64877;50.994;13.650;2024-03-07T09:10:24;15.48;;;9.65;;
76131;SDS011;64877;50.994;13.650;2024-03-07T09:12:51;15.20;;;8.95;;
76131;SDS011;64877;50.994;13.650;2024-03-07T09:15:17;16.98;;;9.57;;
76131;SDS011;64877;50.994;13.650;2024-03-07T09:17:44;16.95;;;9.52;;
76131;SDS011;64877;50.994;13.650;2024-03-07T09:20:11;18.10;;;9.77;;
76131;SDS011;64877;50.994;13.650;2024-03-07T09:22:42;18.40;;;9.23;;
76131;SDS011;64877;50.994;13.650;2024-03-07T09:25:08;16.90;;;9.45;;
76131;SDS011;64877;50.994;13.650;2024-03-07T09:27:35;17.65;;;9.30;;
76131;SDS011;64877;50.994;13.650;2024-03-07T09:30:00;14.68;;;8.32;;
76131;SDS011;64877;50.994;13.650;2024-03-07T09:32:26;15.35;;;8.65;;
76131;SDS011;64877;50.994;13.650;2024-03-07T09:34:53;16.35;;;8.18;;
76131;SDS011;64877;50.994;13.650;2024-03-07T09:37:20;13.80;;;7.75;;
76131;SDS011;64877;50.994;13.650;2024-03-07T09:39:50;15.07;;;7.40;;
76131;SDS011;64877;50.994;13.650;2024-03-07T09:42:17;12.60;;;7.68;;
76131;SDS011;64877;50.994;13.650;2024-03-07T09:44:43;15.23;;;7.18;;
76131;SDS011;64877;50.994;13.650;2024-03-07T09:47:13;15.38;;;7.80;;
76131;SDS011;64877;50.994;13.650;2024-03-07T09:49:39;14.85;;;8.43;;
76131;SDS011;64877;50.994;13.650;2024-03-07T09:52:08;12.82;;;6.85;;
76131;SDS011;64877;50.994;13.650;2024-03-07T09:54:37;13.43;;;7.45;;
76131;SDS011;64877;50.994;13.650;2024-03-07T09:57:04;16.15;;;7.50;;
76131;SDS011;64877;50.994;13.650;2024-03-07T09:59:36;14.32;;;7.55;;
76131;SDS011;64877;50.994;13.650;2024-03-07T10:02:05;13.38;;;8.15;;
76131;SDS011;64877;50.994;13.650;2024-03-07T10:04:42;14.02;;;7.78;;
76131;SDS011;64877;50.994;13.650;2024-03-07T10:07:11;15.68;;;7.85;;
76131;SDS011;64877;50.994;13.650;2024-03-07T10:09:39;16.52;;;8.95;;
76131;SDS011;64877;50.994;13.650;2024-03-07T10:12:06;18.15;;;8.98;;
76131;SDS011;64877;50.994;13.650;2024-03-07T10:14:35;14.90;;;8.35;;
76131;SDS011;64877;50.994;13.650;2024-03-07T10:17:02;14.70;;;8.40;;
76131;SDS011;64877;50.994;13.650;2024-03-07T10:19:28;14.85;;;9.23;;
76131;SDS011;64877;50.994;13.650;2024-03-07T10:21:56;16.05;;;8.70;;
76131;SDS011;64877;50.994;13.650;2024-03-07T10:24:24;14.13;;;8.98;;
76131;SDS011;64877;50.994;13.650;2024-03-07T10:26:50;16.15;;;8.93;;
76131;SDS011;64877;50.994;13.650;2024-03-07T10:29:16;17.30;;;9.38;;
76131;SDS011;64877;50.994;13.650;2024-03-07T10:31:42;19.58;;;9.73;;
76131;SDS011;64877;50.994;13.650;2024-03-07T10:34:09;14.90;;;8.93;;
76131;SDS011;64877;50.994;13.650;2024-03-07T10:36:34;20.70;;;10.07;;
76131;SDS011;64877;50.994;13.650;2024-03-07T10:39:00;15.65;;;10.13;;
76131;SDS011;64877;50.994;13.650;2024-03-07T10:41:29;20.30;;;10.43;;
76131;SDS011;64877;50.994;13.650;2024-03-07T10:44:01;21.60;;;10.43;;
76131;SDS011;64877;50.994;13.650;2024-03-07T10:46:31;20.77;;;10.93;;
76131;SDS011;64877;50.994;13.650;2024-03-07T10:48:58;17.35;;;10.45;;
76131;SDS011;64877;50.994;13.650;2024-03-07T10:51:33;17.55;;;9.73;;
76131;SDS011;64877;50.994;13.650;2024-03-07T10:57:27;18.67;;;10.43;;
76131;SDS011;64877;50.994;13.650;2024-03-07T11:00:02;19.92;;;11.07;;
76131;SDS011;64877;50.994;13.650;2024-03-07T11:02:49;20.65;;;11.57;;
76131;SDS011;64877;50.994;13.650;2024-03-07T11:05:18;22.38;;;12.18;;
76131;SDS011;64877;50.994;13.650;2024-03-07T11:07:44;19.67;;;10.55;;
76131;SDS011;64877;50.994;13.650;2024-03-07T11:10:10;20.40;;;11.82;;
76131;SDS011;64877;50.994;13.650;2024-03-07T11:12:37;17.85;;;11.23;;
76131;SDS011;64877;50.994;13.650;2024-03-07T11:15:06;21.60;;;11.98;;
76131;SDS011;64877;50.994;13.650;2024-03-07T11:17:40;25.33;;;12.60;;
76131;SDS011;64877;50.994;13.650;2024-03-07T11:20:18;23.55;;;14.05;;
76131;SDS011;64877;50.994;13.650;2024-03-07T11:22:45;21.73;;;12.07;;
76131;SDS011;64877;50.994;13.650;2024-03-07T11:25:10;24.13;;;13.25;;
76131;SDS011;64877;50.994;13.650;2024-03-07T11:27:37;24.50;;;13.45;;
76131;SDS011;64877;50.994;13.650;2024-03-07T11:30:07;28.05;;;12.90;;
76131;SDS011;64877;50.994;13.650;2024-03-07T11:32:35;22.88;;;12.80;;
76131;SDS011;64877;50.994;13.650;2024-03-07T11:35:06;21.63;;;13.05;;
76131;SDS011;64877;50.994;13.650;2024-03-07T11:37:45;24.05;;;13.85;;
76131;SDS011;64877;50.994;13.650;2024-03-07T11:42:48;20.67;;;12.40;;
76131;SDS011;64877;50.994;13.650;2024-03-07T11:45:14;23.67;;;13.63;;
76131;SDS011;64877;50.994;13.650;2024-03-07T11:47:57;19.52;;;11.90;;
76131;SDS011;64877;50.994;13.650;2024-03-07T11:50:43;24.98;;;12.88;;
76131;SDS011;64877;50.994;13.650;2024-03-07T11:53:08;20.30;;;11.65;;
76131;SDS011;64877;50.994;13.650;2024-03-07T11:55:35;22.35;;;12.40;;
76131;SDS011;64877;50.994;13.650;2024-03-07T11:58:19;23.33;;;12.82;;
76131;SDS011;64877;50.994;13.650;2024-03-07T12:00:46;23.30;;;12.40;;
76131;SDS011;64877;50.994;13.650;2024-03-07T12:03:13;21.15;;;11.68;;
76131;SDS011;64877;50.994;13.650;2024-03-07T12:05:42;26.10;;;11.63;;
76131;SDS011;64877;50.994;13.650;2024-03-07T12:08:08;20.98;;;12.43;;
76131;SDS011;64877;50.994;13.650;2024-03-07T12:10:36;21.58;;;11.95;;
76131;SDS011;64877;50.994;13.650;2024-03-07T12:13:09;19.70;;;11.25;;
76131;SDS011;64877;50.994;13.650;2024-03-07T12:15:41;23.38;;;11.90;;
76131;SDS011;64877;50.994;13.650;2024-03-07T12:18:07;20.73;;;11.93;;
76131;SDS011;64877;50.994;13.650;2024-03-07T12:20:35;18.33;;;10.75;;
76131;SDS011;64877;50.994;13.650;2024-03-07T12:23:02;18.85;;;11.80;;
76131;SDS011;64877;50.994;13.650;2024-03-07T12:25:28;21.58;;;11.27;;
76131;SDS011;64877;50.994;13.650;2024-03-07T12:30:52;19.42;;;10.82;;
76131;SDS011;64877;50.994;13.650;2024-03-07T12:33:19;22.17;;;13.27;;
76131;SDS011;64877;50.994;13.650;2024-03-07T12:35:49;22.42;;;12.30;;
76131;SDS011;64877;50.994;13.650;2024-03-07T12:38:17;24.27;;;12.60;;
76131;SDS011;64877;50.994;13.650;2024-03-07T12:40:44;20.95;;;11.32;;
76131;SDS011;64877;50.994;13.650;2024-03-07T12:43:18;23.50;;;11.85;;
76131;SDS011;64877;50.994;13.650;2024-03-07T12:45:45;20.80;;;11.52;;
76131;SDS011;64877;50.994;13.650;2024-03-07T12:48:17;23.90;;;13.38;;
76131;SDS011;64877;50.994;13.650;2024-03-07T12:50:46;23.88;;;12.15;;
76131;SDS011;64877;50.994;13.650;2024-03-07T12:53:22;22.92;;;11.38;;
76131;SDS011;64877;50.994;13.650;2024-03-07T12:55:50;27.15;;;12.50;;
76131;SDS011;64877;50.994;13.650;2024-03-07T12:58:17;25.33;;;12.55;;
76131;SDS011;64877;50.994;13.650;2024-03-07T13:00:44;26.58;;;14.43;;
76131;SDS011;64877;50.994;13.650;2024-03-07T13:03:10;29.33;;;14.48;;
76131;SDS011;64877;50.994;13.650;2024-03-07T13:05:36;23.63;;;12.18;;
76131;SDS011;64877;50.994;13.650;2024-03-07T13:08:05;31.02;;;14.38;;
76131;SDS011;64877;50.994;13.650;2024-03-07T13:10:46;22.80;;;12.27;;
76131;SDS011;64877;50.994;13.650;2024-03-07T13:13:12;18.50;;;11.18;;
76131;SDS011;64877;50.994;13.650;2024-03-07T13:15:38;21.90;;;11.15;;
76131;SDS011;64877;50.994;13.650;2024-03-07T13:18:04;22.77;;;11.35;;
76131;SDS011;64877;50.994;13.650;2024-03-07T13:20:30;24.80;;;12.18;;
76131;SDS011;64877;50.994;13.650;2024-03-07T13:22:56;22.00;;;11.73;;
76131;SDS011;64877;50.994;13.650;2024-03-07T13:25:24;19.55;;;11.38;;
76131;SDS011;64877;50.994;13.650;2024-03-07T13:27:56;19.63;;;11.00;;
76131;SDS011;64877;50.994;13.650;2024-03-07T13:30:25;19.20;;;10.85;;
76131;SDS011;64877;50.994;13.650;2024-03-07T13:32:57;20.80;;;11.52;;
76131;SDS011;64877;50.994;13.650;2024-03-07T13:35:24;19.98;;;10.40;;
76131;SDS011;64877;50.994;13.650;2024-03-07T13:37:53;19.38;;;10.70;;
76131;SDS011;64877;50.994;13.650;2024-03-07T13:40:20;19.63;;;11.65;;
76131;SDS011;64877;50.994;13.650;2024-03-07T13:45:20;16.63;;;9.52;;
76131;SDS011;64877;50.994;13.650;2024-03-07T13:50:17;16.92;;;8.85;;
76131;SDS011;64877;50.994;13.650;2024-03-07T13:52:50;15.45;;;8.77;;
76131;SDS011;64877;50.994;13.650;2024-03-07T13:55:34;20.58;;;9.40;;
76131;SDS011;64877;50.994;13.650;2024-03-07T13:58:12;15.80;;;9.70;;
76131;SDS011;64877;50.994;13.650;2024-03-07T14:00:54;19.70;;;10.40;;
76131;SDS011;64877;50.994;13.650;2024-03-07T14:24:36;15.77;;;8.68;;
76131;SDS011;64877;50.994;13.650;2024-03-07T14:27:34;16.75;;;9.82;;
76131;SDS011;64877;50.994;13.650;2024-03-07T14:33:05;16.67;;;8.88;;
76131;SDS011;64877;50.994;13.650;2024-03-07T14:38:23;21.48;;;10.07;;
76131;SDS011;64877;50.994;13.650;2024-03-07T14:40:50;17.60;;;9.25;;
76131;SDS011;64877;50.994;13.650;2024-03-07T14:43:17;18.38;;;9.82;;
76131;SDS011;64877;50.994;13.650;2024-03-07T14:45:44;14.73;;;9.65;;
76131;SDS011;64877;50.994;13.650;2024-03-07T14:48:11;15.13;;;8.98;;
76131;SDS011;64877;50.994;13.650;2024-03-07T14:50:40;15.23;;;9.00;;
76131;SDS011;64877;50.994;13.650;2024-03-07T14:53:06;19.88;;;9.75;;
76131;SDS011;64877;50.994;13.650;2024-03-07T14:55:32;13.75;;;8.23;;